Time;durP1;ratioP1;P1;durP2;ratioP2;P2;SDS_P1;SDS_P2;PMS_P1;PMS_P2;Temp;Humidity;BMP_temperature;BMP_pressure;BME280_temperature;BME280_humidity;BME280_pressure;Samples;Min_cycle;Max_cycle;Signal;HPM_P1;HPM_P2
2022/04/26 03:37:06;;;;;;;2.00;1.05;;;;;;;;;;4957738;28;20049;-84
2022/04/26 03:39:35;;;;;;;0.38;0.38;;;;;;;;;;4946688;28;20027;-84
2022/04/26 03:42:02;;;;;;;0.52;0.52;;;;;;;;;;4945881;28;20049;-83
2022/04/26 03:44:28;;;;;;;0.52;0.52;;;;;;;;;;4945311;28;20027;-83
2022/04/26 03:46:55;;;;;;;1.95;1.80;;;;;;;;;;4945201;28;20047;-84
2022/04/26 03:49:24;;;;;;;0.20;0.20;;;;;;;;;;4931077;29;20032;-84
2022/04/26 03:51:53;;;;;;;1.08;0.55;;;;;;;;;;4941929;28;20295;-83
2022/04/26 03:54:22;;;;;;;0.10;0.10;;;;;;;;;;4947162;28;20134;-81
2022/04/26 03:56:48;;;;;;;0.10;0.10;;;;;;;;;;4944345;28;20031;-83
2022/04/26 03:59:15;;;;;;;0.50;0.50;;;;;;;;;;4946060;28;21836;-83
2022/04/26 04:01:41;;;;;;;0.23;0.23;;;;;;;;;;4943302;28;20095;-83
2022/04/26 04:04:07;;;;;;;1.45;1.17;;;;;;;;;;4944484;28;20035;-84
2022/04/26 04:06:33;;;;;;;0.50;0.43;;;;;;;;;;4940280;28;20397;-81
2022/04/26 04:08:59;;;;;;;0.40;0.40;;;;;;;;;;4945367;28;20077;-83
2022/04/26 04:11:25;;;;;;;0.50;0.50;;;;;;;;;;4944836;28;20110;-82
2022/04/26 04:13:51;;;;;;;0.22;0.22;;;;;;;;;;4945603;28;20027;-83
2022/04/26 04:16:17;;;;;;;0.20;0.20;;;;;;;;;;4942287;28;20492;-83
2022/04/26 04:21:28;;;;;;;1.40;1.30;;;;;;;;;;4948360;28;20046;-82
2022/04/26 04:23:54;;;;;;;0.03;0.03;;;;;;;;;;4951389;28;20097;-83
2022/04/26 04:26:20;;;;;;;0.75;0.75;;;;;;;;;;4948923;28;20515;-84
2022/04/26 04:28:46;;;;;;;0.30;0.30;;;;;;;;;;4945245;28;20027;-83
2022/04/26 04:31:12;;;;;;;0.60;0.60;;;;;;;;;;4942843;28;20079;-82
2022/04/26 04:33:39;;;;;;;0.20;0.20;;;;;;;;;;4949639;28;20042;-83
2022/04/26 04:36:05;;;;;;;0.10;0.10;;;;;;;;;;4943865;28;20030;-83
2022/04/26 04:38:31;;;;;;;0.20;0.20;;;;;;;;;;4941524;28;20062;-82
2022/04/26 04:40:57;;;;;;;0.33;0.33;;;;;;;;;;4942807;28;20039;-82
2022/04/26 04:43:23;;;;;;;0.70;0.70;;;;;;;;;;4941821;28;20043;-82
2022/04/26 04:45:49;;;;;;;0.45;0.45;;;;;;;;;;4948516;28;20031;-82
2022/04/26 04:48:16;;;;;;;0.10;0.10;;;;;;;;;;4948209;28;20677;-84
2022/04/26 04:50:42;;;;;;;0.20;0.20;;;;;;;;;;4942848;28;20034;-83
2022/04/26 04:53:08;;;;;;;0.52;0.52;;;;;;;;;;4947515;28;20792;-82
2022/04/26 04:55:35;;;;;;;0.13;0.13;;;;;;;;;;4943646;28;20031;-83
2022/04/26 04:58:01;;;;;;;0.67;0.67;;;;;;;;;;4959855;28;20093;-85
2022/04/26 05:00:27;;;;;;;0.88;0.88;;;;;;;;;;4948995;28;20082;-84
2022/04/26 05:02:53;;;;;;;0.43;0.43;;;;;;;;;;4944157;28;20035;-84
2022/04/26 05:05:19;;;;;;;0.10;0.10;;;;;;;;;;4948413;28;20274;-84
2022/04/26 05:07:45;;;;;;;0.20;0.20;;;;;;;;;;4954338;28;20031;-84
2022/04/26 05:10:11;;;;;;;0.30;0.30;;;;;;;;;;4946320;28;20031;-85
2022/04/26 05:12:37;;;;;;;0.10;0.10;;;;;;;;;;4951043;28;20042;-84
2022/04/26 05:15:03;;;;;;;0.30;0.30;;;;;;;;;;4948003;28;20042;-84
2022/04/26 05:17:29;;;;;;;2.23;1.47;;;;;;;;;;4945616;28;20174;-83
2022/04/26 05:19:55;;;;;;;0.20;0.20;;;;;;;;;;4948000;28;20146;-84
2022/04/26 05:22:22;;;;;;;0.50;0.50;;;;;;;;;;4942918;28;20572;-84
2022/04/26 05:24:54;;;;;;;0.37;0.37;;;;;;;;;;4956503;28;20027;-84
2022/04/26 05:27:31;;;;;;;0.25;0.25;;;;;;;;;;4948127;28;20043;-83
2022/04/26 05:29:58;;;;;;;0.20;0.20;;;;;;;;;;4944913;28;20061;-84
2022/04/26 05:32:25;;;;;;;1.25;1.13;;;;;;;;;;4947191;28;20108;-84
2022/04/26 05:34:58;;;;;;;5.38;0.70;;;;;;;;;;4945479;28;20041;-84
2022/04/26 05:37:24;;;;;;;0.95;0.95;;;;;;;;;;4931168;29;20203;-84
2022/04/26 05:39:50;;;;;;;0.33;0.33;;;;;;;;;;4946380;28;20035;-83
2022/04/26 05:42:16;;;;;;;0.10;0.10;;;;;;;;;;4947338;28;20926;-83
2022/04/26 05:44:42;;;;;;;0.57;0.57;;;;;;;;;;4947505;28;20528;-83
2022/04/26 05:47:09;;;;;;;1.77;1.08;;;;;;;;;;4943728;28;20039;-83
2022/04/26 05:49:35;;;;;;;0.98;0.52;;;;;;;;;;4943554;28;20024;-83
2022/04/26 05:52:01;;;;;;;0.20;0.20;;;;;;;;;;4957256;28;20043;-83
2022/04/26 05:54:27;;;;;;;1.15;0.43;;;;;;;;;;4943785;28;20039;-84
2022/04/26 05:56:54;;;;;;;0.13;0.13;;;;;;;;;;4946198;28;20035;-82
2022/04/26 05:59:20;;;;;;;0.28;0.28;;;;;;;;;;4945140;29;20058;-83
2022/04/26 06:01:47;;;;;;;0.47;0.40;;;;;;;;;;4944242;28;20063;-82
2022/04/26 06:04:13;;;;;;;1.35;0.63;;;;;;;;;;4944779;29;20038;-82
2022/04/26 06:06:39;;;;;;;1.40;0.80;;;;;;;;;;4943400;29;20042;-83
2022/04/26 06:09:05;;;;;;;1.20;0.40;;;;;;;;;;4946956;28;20041;-85
2022/04/26 06:11:32;;;;;;;0.60;0.40;;;;;;;;;;4951903;28;20041;-84
2022/04/26 06:13:58;;;;;;;0.50;0.30;;;;;;;;;;4953222;28;20041;-85
2022/04/26 06:16:24;;;;;;;1.10;0.70;;;;;;;;;;4942030;28;20665;-84
2022/04/26 06:18:50;;;;;;;1.10;0.93;;;;;;;;;;4943655;28;20058;-85
2022/04/26 06:21:16;;;;;;;0.60;0.60;;;;;;;;;;4948740;28;20043;-85
2022/04/26 06:23:42;;;;;;;0.13;0.13;;;;;;;;;;4948711;28;20287;-85
2022/04/26 06:26:08;;;;;;;0.75;0.75;;;;;;;;;;4946376;28;20027;-85
2022/04/26 06:28:35;;;;;;;0.20;0.20;;;;;;;;;;4944060;28;20035;-84
2022/04/26 06:31:02;;;;;;;0.45;0.43;;;;;;;;;;4960661;28;20128;-85
2022/04/26 06:33:28;;;;;;;0.10;0.10;;;;;;;;;;4948204;28;20051;-85
2022/04/26 06:35:55;;;;;;;0.45;0.38;;;;;;;;;;4947983;28;20769;-86
2022/04/26 06:38:23;;;;;;;0.40;0.40;;;;;;;;;;4946918;28;20505;-84
2022/04/26 06:40:51;;;;;;;0.15;0.15;;;;;;;;;;4945989;28;20039;-85
2022/04/26 06:43:18;;;;;;;0.35;0.32;;;;;;;;;;4944354;28;20087;-83
2022/04/26 06:45:46;;;;;;;0.45;0.20;;;;;;;;;;4960838;28;20122;-85
2022/04/26 06:48:12;;;;;;;1.00;0.22;;;;;;;;;;4950588;28;20031;-84
2022/04/26 06:50:38;;;;;;;0.65;0.65;;;;;;;;;;4947122;28;20115;-85
2022/04/26 06:53:04;;;;;;;1.77;1.10;;;;;;;;;;4946497;28;20650;-86
2022/04/26 06:55:31;;;;;;;0.20;0.20;;;;;;;;;;4944778;28;20090;-86
2022/04/26 06:57:57;;;;;;;0.10;0.10;;;;;;;;;;4948818;28;20027;-85
2022/04/26 07:00:23;;;;;;;0.22;0.22;;;;;;;;;;4946499;28;20069;-85
2022/04/26 07:02:49;;;;;;;0.75;0.47;;;;;;;;;;4945249;28;20524;-85
2022/04/26 07:05:15;;;;;;;0.10;0.10;;;;;;;;;;4948342;28;20038;-85
2022/04/26 07:07:42;;;;;;;0.20;0.10;;;;;;;;;;4944880;28;20047;-85
2022/04/26 07:10:08;;;;;;;0.70;0.60;;;;;;;;;;4944210;28;20070;-84
2022/04/26 07:12:34;;;;;;;0.45;0.28;;;;;;;;;;4946767;28;20127;-83
2022/04/26 07:15:00;;;;;;;0.10;0.10;;;;;;;;;;4946206;28;20484;-83
2022/04/26 07:17:26;;;;;;;0.25;0.17;;;;;;;;;;4946755;28;20027;-84
2022/04/26 07:19:53;;;;;;;0.22;0.22;;;;;;;;;;4946811;28;20051;-82
2022/04/26 07:22:19;;;;;;;0.73;0.52;;;;;;;;;;4942966;28;20075;-82
2022/04/26 07:24:45;;;;;;;1.55;1.35;;;;;;;;;;4949135;28;20055;-79
2022/04/26 07:27:11;;;;;;;0.20;0.20;;;;;;;;;;4945301;28;20146;-81
2022/04/26 07:29:41;;;;;;;;;;;;;;;;;;4946556;28;20031;-80
2022/04/26 07:32:07;;;;;;;0.30;0.30;;;;;;;;;;4946485;28;19914;-81
2022/04/26 07:34:33;;;;;;;0.30;0.28;;;;;;;;;;4943011;28;20109;-80
2022/04/26 07:37:02;;;;;;;0.10;0.10;;;;;;;;;;4947612;28;20034;-82
2022/04/26 07:39:28;;;;;;;0.13;0.13;;;;;;;;;;4948696;28;20024;-82
2022/04/26 07:41:54;;;;;;;0.40;0.28;;;;;;;;;;4945325;28;20051;-82
2022/04/26 07:44:20;;;;;;;1.45;0.98;;;;;;;;;;4946415;28;20567;-82
2022/04/26 07:46:48;;;;;;;0.55;0.55;;;;;;;;;;4945340;28;20126;-85
2022/04/26 07:49:15;;;;;;;0.45;0.32;;;;;;;;;;4943366;28;20162;-84
2022/04/26 07:51:42;;;;;;;0.20;0.20;;;;;;;;;;4948607;28;20042;-85
2022/04/26 07:54:08;;;;;;;;;;;;;;;;;;4946589;28;20035;-85
2022/04/26 07:56:34;;;;;;;0.40;0.40;;;;;;;;;;4946096;28;19921;-85
2022/04/26 07:59:01;;;;;;;0.75;0.50;;;;;;;;;;4945773;28;20062;-86
2022/04/26 08:01:28;;;;;;;0.10;0.10;;;;;;;;;;4941409;28;20143;-86
2022/04/26 08:03:55;;;;;;;0.38;0.35;;;;;;;;;;4959929;28;20085;-86
2022/04/26 08:06:21;;;;;;;0.10;0.10;;;;;;;;;;4946686;28;20047;-85
2022/04/26 08:08:47;;;;;;;0.65;0.40;;;;;;;;;;4950953;28;20046;-86
2022/04/26 08:11:13;;;;;;;0.10;0.10;;;;;;;;;;4954474;28;20031;-85
2022/04/26 08:13:42;;;;;;;0.10;0.10;;;;;;;;;;4943686;28;20036;-85
2022/04/26 08:16:09;;;;;;;0.32;0.32;;;;;;;;;;4945638;28;20122;-84
2022/04/26 08:18:35;;;;;;;0.60;0.52;;;;;;;;;;4948238;28;20055;-82
2022/04/26 08:21:01;;;;;;;1.85;0.35;;;;;;;;;;4944696;28;20035;-84
2022/04/26 08:23:28;;;;;;;0.20;0.20;;;;;;;;;;4937481;28;20074;-84
2022/04/26 08:28:39;;;;;;;0.57;0.57;;;;;;;;;;4961573;28;20051;-85
2022/04/26 08:31:05;;;;;;;0.52;0.47;;;;;;;;;;4947660;28;20501;-84
2022/04/26 08:33:34;;;;;;;0.00;0.00;;;;;;;;;;4952029;28;20037;-84
2022/04/26 08:36:00;;;;;;;0.52;0.20;;;;;;;;;;4950726;28;20035;-85
2022/04/26 08:38:26;;;;;;;0.10;0.10;;;;;;;;;;4949330;28;20110;-85
2022/04/26 08:40:52;;;;;;;0.10;0.10;;;;;;;;;;4946150;28;20023;-84
2022/04/26 08:43:18;;;;;;;1.00;0.50;;;;;;;;;;4944312;29;20050;-84
2022/04/26 08:45:46;;;;;;;0.22;0.22;;;;;;;;;;4950813;28;20853;-84
2022/04/26 08:51:00;;;;;;;0.30;0.30;;;;;;;;;;4934965;28;20051;-84
2022/04/26 08:53:26;;;;;;;0.30;0.30;;;;;;;;;;4932251;28;20031;-84
2022/04/26 08:55:53;;;;;;;0.40;0.40;;;;;;;;;;4930305;28;20031;-85
2022/04/26 08:58:21;;;;;;;0.43;0.43;;;;;;;;;;4932333;28;20401;-84
2022/04/26 09:01:23;;;;;;;0.20;0.20;;;;;;;;;;4931241;28;20162;-83
2022/04/26 09:03:55;;;;;;;1.38;0.70;;;;;;;;;;4909434;29;20123;-82
2022/04/26 09:06:30;;;;;;;0.10;0.10;;;;;;;;;;4916330;29;20539;-84
2022/04/26 09:09:06;;;;;;;0.28;0.28;;;;;;;;;;4909879;29;20040;-85
2022/04/26 09:11:35;;;;;;;10.00;0.47;;;;;;;;;;4910526;29;20043;-85
2022/04/26 09:14:02;;;;;;;0.20;0.20;;;;;;;;;;4907653;29;20036;-85
2022/04/26 09:16:29;;;;;;;0.10;0.10;;;;;;;;;;4889583;29;20394;-84
2022/04/26 09:19:00;;;;;;;0.10;0.10;;;;;;;;;;4894613;29;20048;-84
2022/04/26 09:21:27;;;;;;;0.65;0.30;;;;;;;;;;4911113;29;20043;-83
2022/04/26 09:23:53;;;;;;;0.10;0.10;;;;;;;;;;4909914;29;20127;-82
2022/04/26 09:26:19;;;;;;;0.52;0.52;;;;;;;;;;4911677;29;20043;-82
2022/04/26 09:28:47;;;;;;;0.20;0.20;;;;;;;;;;4912036;29;20039;-83
2022/04/26 09:31:18;;;;;;;0.32;0.32;;;;;;;;;;4905235;29;20608;-83
2022/04/26 09:33:47;;;;;;;0.10;0.10;;;;;;;;;;4913520;29;20035;-84
2022/04/26 09:36:14;;;;;;;0.10;0.10;;;;;;;;;;4908960;29;20060;-83
2022/04/26 09:38:41;;;;;;;0.22;0.10;;;;;;;;;;4928619;28;20048;-83
2022/04/26 09:41:11;;;;;;;1.05;0.25;;;;;;;;;;4931539;28;20077;-84
2022/04/26 09:43:38;;;;;;;1.10;0.68;;;;;;;;;;4930297;28;20122;-84
2022/04/26 09:46:08;;;;;;;;;;;;;;;;;;4933260;28;20039;-85
2022/04/26 09:48:35;;;;;;;0.10;0.10;;;;;;;;;;4932588;28;19918;-85
2022/04/26 09:51:04;;;;;;;0.00;0.00;;;;;;;;;;4936034;28;20027;-85
2022/04/26 09:53:32;;;;;;;1.80;0.70;;;;;;;;;;4947835;28;20036;-85
2022/04/26 09:55:59;;;;;;;0.10;0.10;;;;;;;;;;4944546;28;20027;-88
2022/04/26 09:58:28;;;;;;;0.57;0.50;;;;;;;;;;4946702;28;20114;-87
2022/04/26 10:00:56;;;;;;;0.25;0.25;;;;;;;;;;4958665;28;20815;-83
2022/04/26 10:03:28;;;;;;;1.02;0.17;;;;;;;;;;4940729;28;20059;-83
2022/04/26 10:05:57;;;;;;;0.00;0.00;;;;;;;;;;4934391;28;20030;-84
2022/04/26 10:08:23;;;;;;;0.10;0.05;;;;;;;;;;4931608;28;20509;-83
2022/04/26 10:10:49;;;;;;;0.28;0.28;;;;;;;;;;4930491;28;20031;-84
2022/04/26 10:13:34;;;;;;;0.93;0.90;;;;;;;;;;4925328;28;20042;-84
2022/04/26 10:16:02;;;;;;;0.08;0.08;;;;;;;;;;4927744;28;20057;-83
2022/04/26 10:18:33;;;;;;;0.55;0.15;;;;;;;;;;4926998;28;20027;-84
2022/04/26 10:21:00;;;;;;;0.60;0.25;;;;;;;;;;4931353;28;20030;-83
2022/04/26 10:23:26;;;;;;;0.10;0.10;;;;;;;;;;4940993;28;20085;-83
2022/04/26 10:26:11;;;;;;;0.10;0.10;;;;;;;;;;4941078;28;20054;-85
2022/04/26 10:28:53;;;;;;;0.47;0.28;;;;;;;;;;4942216;28;20039;-83
2022/04/26 10:31:21;;;;;;;0.22;0.22;;;;;;;;;;4944250;28;20054;-83
2022/04/26 10:33:48;;;;;;;0.25;0.25;;;;;;;;;;4944815;29;20039;-82
2022/04/26 10:36:29;;;;;;;0.10;0.10;;;;;;;;;;4943761;28;20059;-84
2022/04/26 10:39:08;;;;;;;0.68;0.60;;;;;;;;;;4940479;28;20031;-84
2022/04/26 10:41:35;;;;;;;0.68;0.63;;;;;;;;;;4941992;28;20043;-84
2022/04/26 10:44:14;;;;;;;0.13;0.13;;;;;;;;;;4945108;28;20075;-83
2022/04/26 10:47:00;;;;;;;1.20;0.75;;;;;;;;;;4949026;28;20140;-84
2022/04/26 10:49:32;;;;;;;0.75;0.52;;;;;;;;;;4953070;28;20063;-83
2022/04/26 10:52:22;;;;;;;0.15;0.15;;;;;;;;;;4944477;28;20545;-84
2022/04/26 10:54:48;;;;;;;0.10;0.10;;;;;;;;;;4943490;28;20040;-84
2022/04/26 10:57:19;;;;;;;4.28;1.35;;;;;;;;;;4944456;28;20039;-83
2022/04/26 10:59:45;;;;;;;1.00;0.38;;;;;;;;;;4945926;28;20062;-82
2022/04/26 11:02:16;;;;;;;0.45;0.38;;;;;;;;;;4946217;28;20054;-84
2022/04/26 11:04:42;;;;;;;0.10;0.10;;;;;;;;;;4940990;28;20254;-84
2022/04/26 11:07:12;;;;;;;0.30;0.20;;;;;;;;;;4942307;29;20090;-84
2022/04/26 11:09:44;;;;;;;0.25;0.25;;;;;;;;;;4941820;28;20146;-85
2022/04/26 11:12:10;;;;;;;0.70;0.10;;;;;;;;;;4943219;28;20031;-84
2022/04/26 11:14:42;;;;;;;0.00;0.00;;;;;;;;;;4944460;28;20772;-85
2022/04/26 11:17:08;;;;;;;0.20;0.20;;;;;;;;;;4942639;28;20076;-86
2022/04/26 11:19:38;;;;;;;0.17;0.10;;;;;;;;;;4933835;28;20103;-85
2022/04/26 11:22:08;;;;;;;0.10;0.10;;;;;;;;;;4937590;28;20395;-85
2022/04/26 11:30:06;;;;;;;1.35;0.85;;;;;;;;;;4938024;28;20061;-85
2022/04/26 11:32:34;;;;;;;0.00;0.00;;;;;;;;;;4937538;28;20027;-84
2022/04/26 11:35:01;;;;;;;0.13;0.13;;;;;;;;;;4935646;28;20575;-84
2022/04/26 11:37:27;;;;;;;0.17;0.17;;;;;;;;;;4926482;28;20031;-84
2022/04/26 11:39:53;;;;;;;0.20;0.20;;;;;;;;;;4932029;28;20038;-84
2022/04/26 11:42:19;;;;;;;0.20;0.20;;;;;;;;;;4937947;28;20086;-83
2022/04/26 11:45:01;;;;;;;0.25;0.20;;;;;;;;;;4941197;28;20186;-83
2022/04/26 11:47:50;;;;;;;0.20;0.20;;;;;;;;;;4933249;28;20037;-83
2022/04/26 11:50:26;;;;;;;0.00;0.00;;;;;;;;;;4931454;28;20035;-82
2022/04/26 11:52:55;;;;;;;0.45;0.10;;;;;;;;;;4929809;28;20503;-82
2022/04/26 11:55:31;;;;;;;0.00;0.00;;;;;;;;;;4928238;28;20040;-82
2022/04/26 11:58:12;;;;;;;0.25;0.25;;;;;;;;;;4942964;28;20139;-82
2022/04/26 12:00:49;;;;;;;0.10;0.10;;;;;;;;;;4942862;28;20039;-82
2022/04/26 12:03:16;;;;;;;0.20;0.20;;;;;;;;;;4937781;28;20043;-82
2022/04/26 12:05:43;;;;;;;0.52;0.38;;;;;;;;;;4936128;28;20560;-81
2022/04/26 12:08:09;;;;;;;0.10;0.10;;;;;;;;;;4936114;28;20111;-86
2022/04/26 12:10:36;;;;;;;0.10;0.10;;;;;;;;;;4935869;28;20099;-91
2022/04/26 12:13:04;;;;;;;0.25;0.17;;;;;;;;;;4943257;29;22229;-89
2022/04/26 12:15:31;;;;;;;4.25;0.88;;;;;;;;;;4936624;28;20050;-85
2022/04/26 12:18:07;;;;;;;0.10;0.10;;;;;;;;;;4939415;28;20023;-86
2022/04/26 12:20:35;;;;;;;;;;;;;;;;;;4937089;28;20047;-86
2022/04/26 12:23:02;;;;;;;0.30;0.30;;;;;;;;;;4935475;28;20754;-87
2022/04/26 12:25:29;;;;;;;2.53;1.40;;;;;;;;;;4934966;28;20024;-87
2022/04/26 12:28:01;;;;;;;0.25;0.25;;;;;;;;;;4934763;28;20114;-88
2022/04/26 12:30:31;;;;;;;1.20;0.35;;;;;;;;;;4940702;28;20730;-89
2022/04/26 12:32:57;;;;;;;0.10;0.10;;;;;;;;;;4935762;28;20031;-88
2022/04/26 12:35:23;;;;;;;0.60;0.20;;;;;;;;;;4937800;28;20486;-88
2022/04/26 12:38:03;;;;;;;0.08;0.08;;;;;;;;;;4933758;28;20373;-88
2022/04/26 12:40:29;;;;;;;0.20;0.20;;;;;;;;;;4941558;28;20082;-88
2022/04/26 12:42:57;;;;;;;0.00;0.00;;;;;;;;;;4949566;28;20420;-87
2022/04/26 12:45:24;;;;;;;0.08;0.08;;;;;;;;;;4947085;28;20471;-88
2022/04/26 12:50:35;;;;;;;0.22;0.22;;;;;;;;;;4940008;28;20823;-88
2022/04/26 12:53:03;;;;;;;0.75;0.57;;;;;;;;;;4944750;28;20042;-88
2022/04/26 12:55:39;;;;;;;0.25;0.25;;;;;;;;;;4945277;28;20579;-87
2022/04/26 12:58:08;;;;;;;0.20;0.20;;;;;;;;;;4946962;28;20500;-88
2022/04/26 13:00:39;;;;;;;0.00;0.00;;;;;;;;;;4948613;28;20046;-87
2022/04/26 13:03:06;;;;;;;1.85;0.30;;;;;;;;;;4943759;28;20062;-89
2022/04/26 13:05:40;;;;;;;0.20;0.15;;;;;;;;;;4945758;28;20500;-88
2022/04/26 13:08:06;;;;;;;0.20;0.20;;;;;;;;;;4948962;28;20039;-89
2022/04/26 13:10:33;;;;;;;0.47;0.47;;;;;;;;;;4958330;28;20090;-88
2022/04/26 13:12:59;;;;;;;0.25;0.20;;;;;;;;;;4947999;28;20102;-91
2022/04/26 13:15:27;;;;;;;0.52;0.30;;;;;;;;;;4947746;28;20656;-91
2022/04/26 13:17:57;;;;;;;0.20;0.20;;;;;;;;;;4947172;28;20043;-90
2022/04/26 13:20:24;;;;;;;0.22;0.22;;;;;;;;;;4945676;28;20553;-87
2022/04/26 13:22:50;;;;;;;0.10;0.10;;;;;;;;;;4932943;29;20035;-87
2022/04/26 13:25:16;;;;;;;0.20;0.20;;;;;;;;;;4933629;28;20560;-86
2022/04/26 13:27:42;;;;;;;0.20;0.20;;;;;;;;;;4934076;28;20035;-86
2022/04/26 13:30:08;;;;;;;0.08;0.08;;;;;;;;;;4933490;28;20437;-86
2022/04/26 13:32:35;;;;;;;0.30;0.30;;;;;;;;;;4934797;28;20133;-87
2022/04/26 13:35:01;;;;;;;0.63;0.45;;;;;;;;;;4931634;28;20034;-87
2022/04/26 13:37:28;;;;;;;0.20;0.20;;;;;;;;;;4931370;28;20046;-87
2022/04/26 13:39:54;;;;;;;0.28;0.25;;;;;;;;;;4931794;28;20038;-86
2022/04/26 13:42:23;;;;;;;0.05;0.05;;;;;;;;;;4937034;28;20126;-87
2022/04/26 13:44:51;;;;;;;0.82;0.82;;;;;;;;;;4946861;28;20850;-87
2022/04/26 13:47:17;;;;;;;0.08;0.08;;;;;;;;;;4945405;28;20035;-86
2022/04/26 13:49:43;;;;;;;0.10;0.10;;;;;;;;;;4944030;28;20285;-87
2022/04/26 13:52:13;;;;;;;0.00;0.00;;;;;;;;;;4946044;28;20039;-86
2022/04/26 13:54:42;;;;;;;0.88;0.35;;;;;;;;;;4948528;28;20105;-87
2022/04/26 13:57:08;;;;;;;0.10;0.10;;;;;;;;;;4944148;28;20410;-87
2022/04/26 13:59:34;;;;;;;0.17;0.17;;;;;;;;;;4931692;28;20081;-86
2022/04/26 14:02:01;;;;;;;0.05;0.05;;;;;;;;;;4928290;28;20042;-86
2022/04/26 14:04:27;;;;;;;0.32;0.32;;;;;;;;;;4945284;28;20125;-87
2022/04/26 14:06:53;;;;;;;0.10;0.10;;;;;;;;;;4947860;28;20031;-87
2022/04/26 14:09:19;;;;;;;0.10;0.10;;;;;;;;;;4947775;28;20038;-87
2022/04/26 14:11:45;;;;;;;1.08;0.43;;;;;;;;;;4938381;28;20032;-86
2022/04/26 14:22:30;;;;;;;0.20;0.20;;;;;;;;;;4928867;29;20854;-87
2022/04/26 14:24:58;;;;;;;0.10;0.10;;;;;;;;;;4930217;28;20028;-87
2022/04/26 14:27:24;;;;;;;0.38;0.20;;;;;;;;;;4933069;28;20027;-87
2022/04/26 14:29:50;;;;;;;0.55;0.47;;;;;;;;;;4933456;28;20055;-86
2022/04/26 14:32:16;;;;;;;0.10;0.10;;;;;;;;;;4932861;28;20076;-86
2022/04/26 14:34:43;;;;;;;0.03;0.03;;;;;;;;;;4929895;28;20473;-86
2022/04/26 14:37:09;;;;;;;0.10;0.10;;;;;;;;;;4929907;28;20148;-88
2022/04/26 14:39:39;;;;;;;0.52;0.30;;;;;;;;;;4932380;28;20027;-86
2022/04/26 14:42:05;;;;;;;0.10;0.10;;;;;;;;;;4932749;28;20039;-85
2022/04/26 14:44:31;;;;;;;;;;;;;;;;;;4933118;28;20038;-87
2022/04/26 14:46:57;;;;;;;0.10;0.10;;;;;;;;;;4927501;29;19910;-87
2022/04/26 14:49:24;;;;;;;0.17;0.15;;;;;;;;;;4932688;28;20035;-87
2022/04/26 14:51:51;;;;;;;0.43;0.43;;;;;;;;;;4934232;28;20051;-86
2022/04/26 14:54:17;;;;;;;0.10;0.10;;;;;;;;;;4934028;28;20044;-86
2022/04/26 14:56:43;;;;;;;0.55;0.55;;;;;;;;;;4934204;28;20517;-86
2022/04/26 14:59:09;;;;;;;0.22;0.22;;;;;;;;;;4934299;28;20259;-86
2022/04/26 15:01:35;;;;;;;0.13;0.13;;;;;;;;;;4929802;28;20580;-87
2022/04/26 15:04:02;;;;;;;0.20;0.20;;;;;;;;;;4932867;28;20047;-88
2022/04/26 15:06:28;;;;;;;0.10;0.10;;;;;;;;;;4935946;28;20035;-87
2022/04/26 15:11:39;;;;;;;0.30;0.30;;;;;;;;;;4935953;28;20050;-87
2022/04/26 15:16:50;;;;;;;0.98;0.75;;;;;;;;;;4930331;29;20038;-87
2022/04/26 15:19:16;;;;;;;0.00;0.00;;;;;;;;;;4928710;28;20052;-88
2022/04/26 15:21:43;;;;;;;0.43;0.43;;;;;;;;;;4931359;28;20350;-88
2022/04/26 15:24:09;;;;;;;0.00;0.00;;;;;;;;;;4935954;28;20031;-88
2022/04/26 15:26:36;;;;;;;0.30;0.30;;;;;;;;;;4933225;28;20489;-88
2022/04/26 15:29:04;;;;;;;0.08;0.08;;;;;;;;;;4931500;28;20428;-87
2022/04/26 15:31:31;;;;;;;0.40;0.32;;;;;;;;;;4926759;28;20081;-88
2022/04/26 15:33:57;;;;;;;0.10;0.10;;;;;;;;;;4931740;28;20023;-87
2022/04/26 15:36:23;;;;;;;0.30;0.30;;;;;;;;;;4929995;28;20049;-88
2022/04/26 15:38:49;;;;;;;0.00;0.00;;;;;;;;;;4933243;28;20693;-88
2022/04/26 15:41:16;;;;;;;0.10;0.10;;;;;;;;;;4932762;28;20037;-88
2022/04/26 15:43:42;;;;;;;0.10;0.10;;;;;;;;;;4929513;28;20055;-87
2022/04/26 15:46:09;;;;;;;0.10;0.10;;;;;;;;;;4929093;28;20118;-88
2022/04/26 15:48:38;;;;;;;;;;;;;;;;;;4933807;28;20055;-87
2022/04/26 15:51:07;;;;;;;0.47;0.40;;;;;;;;;;4932471;28;19918;-88
2022/04/26 15:53:33;;;;;;;1.00;0.80;;;;;;;;;;4932653;28;20034;-86
2022/04/26 15:55:59;;;;;;;;;;;;;;;;;;4931443;28;20027;-86
2022/04/26 15:58:26;;;;;;;0.10;0.10;;;;;;;;;;4931404;28;19961;-88
2022/04/26 16:00:54;;;;;;;0.00;0.00;;;;;;;;;;4949233;28;20117;-86
2022/04/26 16:03:20;;;;;;;0.10;0.10;;;;;;;;;;4947674;28;20039;-86
2022/04/26 16:05:47;;;;;;;0.10;0.10;;;;;;;;;;4945613;28;20731;-87
2022/04/26 16:08:13;;;;;;;0.57;0.57;;;;;;;;;;4945821;28;20539;-87
2022/04/26 16:21:40;;;;;;;0.60;0.60;;;;;;;;;;4958279;28;20570;-87
2022/04/26 16:24:06;;;;;;;0.10;0.10;;;;;;;;;;4945905;28;20043;-88
2022/04/26 16:26:34;;;;;;;0.00;0.00;;;;;;;;;;4942318;28;20031;-88
2022/04/26 16:29:08;;;;;;;0.00;0.00;;;;;;;;;;4944391;28;20042;-88
2022/04/26 16:31:34;;;;;;;0.20;0.20;;;;;;;;;;4946531;28;20119;-87
2022/04/26 16:34:02;;;;;;;0.30;0.30;;;;;;;;;;4947494;28;20034;-87
2022/04/26 16:36:28;;;;;;;0.17;0.17;;;;;;;;;;4946534;28;20031;-87
2022/04/26 16:38:54;;;;;;;0.10;0.10;;;;;;;;;;4945991;28;20042;-87
2022/04/26 16:41:21;;;;;;;0.32;0.32;;;;;;;;;;4945689;28;20031;-88
2022/04/26 16:43:49;;;;;;;0.05;0.05;;;;;;;;;;4944563;28;20071;-86
2022/04/26 16:46:22;;;;;;;0.00;0.00;;;;;;;;;;4945017;28;20042;-87
2022/04/26 16:48:48;;;;;;;0.35;0.35;;;;;;;;;;4952489;28;20583;-87
2022/04/26 16:51:15;;;;;;;0.10;0.10;;;;;;;;;;4949475;28;20484;-87
2022/04/26 16:53:42;;;;;;;0.00;0.00;;;;;;;;;;4946974;28;20074;-87
2022/04/26 16:56:08;;;;;;;0.30;0.30;;;;;;;;;;4946933;28;20027;-87
2022/04/26 16:58:34;;;;;;;0.00;0.00;;;;;;;;;;4943115;28;20568;-89
2022/04/26 17:01:01;;;;;;;0.10;0.10;;;;;;;;;;4948660;28;20416;-87
2022/04/26 17:03:27;;;;;;;0.35;0.30;;;;;;;;;;4936993;28;20054;-86
2022/04/26 17:05:54;;;;;;;0.20;0.20;;;;;;;;;;4939616;28;20042;-87
2022/04/26 17:08:20;;;;;;;0.98;0.47;;;;;;;;;;4933597;28;20042;-87
2022/04/26 17:10:47;;;;;;;0.03;0.03;;;;;;;;;;4930209;28;20162;-87
2022/04/26 17:13:13;;;;;;;0.20;0.20;;;;;;;;;;4931963;28;20020;-86
2022/04/26 17:15:40;;;;;;;0.38;0.30;;;;;;;;;;4935431;28;20031;-88
2022/04/26 17:18:06;;;;;;;0.10;0.10;;;;;;;;;;4943387;29;20083;-86
2022/04/26 17:20:33;;;;;;;0.32;0.30;;;;;;;;;;4947424;28;20051;-87
2022/04/26 17:22:59;;;;;;;0.00;0.00;;;;;;;;;;4946641;28;20051;-90
2022/04/26 17:25:25;;;;;;;0.00;0.00;;;;;;;;;;4943749;29;20042;-88
2022/04/26 17:27:52;;;;;;;0.10;0.10;;;;;;;;;;4950663;28;20047;-87
2022/04/26 17:30:18;;;;;;;0.40;0.40;;;;;;;;;;4946726;28;20428;-87
2022/04/26 17:32:45;;;;;;;0.15;0.15;;;;;;;;;;4947657;28;20400;-86
2022/04/26 17:35:11;;;;;;;0.20;0.20;;;;;;;;;;4943923;28;20183;-88
2022/04/26 17:37:39;;;;;;;;;;;;;;;;;;4946232;28;20107;-88
2022/04/26 17:40:05;;;;;;;0.15;0.15;;;;;;;;;;4965399;28;20368;-87
2022/04/26 17:42:34;;;;;;;0.20;0.20;;;;;;;;;;4959495;28;20042;-89
2022/04/26 17:45:01;;;;;;;0.35;0.35;;;;;;;;;;4958928;28;20035;-87
2022/04/26 17:47:29;;;;;;;0.30;0.28;;;;;;;;;;4939477;28;20042;-87
2022/04/26 17:49:55;;;;;;;0.10;0.10;;;;;;;;;;4942296;29;20086;-87
2022/04/26 17:52:21;;;;;;;0.22;0.22;;;;;;;;;;4945324;28;20035;-86
2022/04/26 17:57:32;;;;;;;0.20;0.20;;;;;;;;;;4950051;28;20046;-87
2022/04/26 17:59:58;;;;;;;0.13;0.13;;;;;;;;;;4946015;28;20035;-85
2022/04/26 18:02:24;;;;;;;0.22;0.22;;;;;;;;;;4946413;28;20039;-86
2022/04/26 18:04:50;;;;;;;0.10;0.10;;;;;;;;;;4945789;28;20106;-86
2022/04/26 18:07:16;;;;;;;1.30;0.47;;;;;;;;;;4944041;28;20027;-86
2022/04/26 18:09:43;;;;;;;0.30;0.30;;;;;;;;;;4945781;28;20039;-87
2022/04/26 18:12:11;;;;;;;0.10;0.10;;;;;;;;;;4942544;28;20108;-87
2022/04/26 18:14:37;;;;;;;0.38;0.38;;;;;;;;;;4941603;28;20050;-86
2022/04/26 18:17:03;;;;;;;0.35;0.35;;;;;;;;;;4938413;29;20042;-86
2022/04/26 18:19:30;;;;;;;0.10;0.10;;;;;;;;;;4943054;28;20043;-89
2022/04/26 18:21:56;;;;;;;0.20;0.20;;;;;;;;;;4951370;28;20902;-88
2022/04/26 18:24:22;;;;;;;0.27;0.27;;;;;;;;;;4946338;28;20041;-87
2022/04/26 18:26:48;;;;;;;0.13;0.13;;;;;;;;;;4944080;28;20023;-87
2022/04/26 18:29:19;;;;;;;0.15;0.15;;;;;;;;;;4948165;28;20039;-88
2022/04/26 18:31:46;;;;;;;0.10;0.10;;;;;;;;;;4941960;28;20034;-86
2022/04/26 18:34:15;;;;;;;0.35;0.35;;;;;;;;;;4946156;28;20077;-86
2022/04/26 18:36:41;;;;;;;0.52;0.52;;;;;;;;;;4946685;28;20122;-86
2022/04/26 18:39:09;;;;;;;0.15;0.15;;;;;;;;;;4947330;28;20063;-86
2022/04/26 18:41:35;;;;;;;0.70;0.70;;;;;;;;;;4935670;28;20683;-87
2022/04/26 18:44:02;;;;;;;0.30;0.30;;;;;;;;;;4936253;28;20142;-86
2022/04/26 18:46:28;;;;;;;0.40;0.32;;;;;;;;;;4935039;29;20038;-88
2022/04/26 18:48:54;;;;;;;0.65;0.65;;;;;;;;;;4959070;28;20039;-85
2022/04/26 18:51:21;;;;;;;0.77;0.40;;;;;;;;;;4947035;28;20043;-86
2022/04/26 18:53:47;;;;;;;0.63;0.63;;;;;;;;;;4950861;28;20088;-88
2022/04/26 18:56:13;;;;;;;0.32;0.32;;;;;;;;;;4951600;28;20500;-87
2022/04/26 18:58:39;;;;;;;0.25;0.25;;;;;;;;;;4943918;28;20036;-85
2022/04/26 19:01:06;;;;;;;0.00;0.00;;;;;;;;;;4946589;28;20035;-85
2022/04/26 19:03:32;;;;;;;0.10;0.10;;;;;;;;;;4945795;28;20081;-85
2022/04/26 19:05:59;;;;;;;0.13;0.13;;;;;;;;;;4943454;28;20031;-84
2022/04/26 19:08:28;;;;;;;;;;;;;;;;;;4943076;28;20065;-86